createdAt,value
2023-05-20T00:01:00.956Z,3.30
2023-05-20T00:03:27.476Z,4.17
2023-05-20T00:05:53.914Z,3.50
2023-05-20T00:08:20.276Z,3.40
2023-05-20T00:10:46.645Z,3.60
2023-05-20T00:13:12.928Z,3.57
2023-05-20T00:15:39.336Z,3.87
2023-05-20T00:18:05.771Z,3.70
2023-05-20T00:20:32.385Z,3.60
2023-05-20T00:22:58.686Z,3.10
2023-05-20T00:25:25.265Z,3.63
2023-05-20T00:27:51.553Z,3.70
2023-05-20T00:30:17.885Z,3.30
2023-05-20T00:32:44.279Z,3.70
2023-05-20T00:35:11.615Z,3.93
2023-05-20T00:37:37.949Z,3.70
2023-05-20T00:40:04.918Z,3.77
2023-05-20T00:42:31.243Z,3.60
2023-05-20T00:44:57.650Z,3.30
2023-05-20T00:47:26.604Z,3.73
2023-05-20T00:49:52.995Z,3.43
2023-05-20T00:52:19.536Z,3.50
2023-05-20T00:54:46.090Z,3.47
2023-05-20T00:57:13.256Z,3.50
2023-05-20T00:59:39.744Z,3.83
2023-05-20T01:02:06.311Z,3.03
2023-05-20T01:04:32.939Z,3.63
2023-05-20T01:07:00.560Z,3.50
2023-05-20T01:09:26.918Z,3.83
2023-05-20T01:12:02.761Z,3.60
2023-05-20T01:14:31.185Z,3.50
2023-05-20T01:17:01.846Z,3.33
2023-05-20T01:19:35.377Z,3.53
2023-05-20T01:22:06.989Z,3.57
2023-05-20T01:24:33.600Z,3.50
2023-05-20T01:26:59.904Z,3.50
2023-05-20T01:29:26.420Z,3.60
2023-05-20T01:31:53.747Z,3.47
2023-05-20T01:34:20.657Z,3.63
2023-05-20T01:36:47.151Z,3.83
2023-05-20T01:39:13.744Z,3.60
2023-05-20T01:41:41.088Z,3.50
2023-05-20T01:44:07.511Z,4.07
2023-05-20T01:46:34.486Z,3.53
2023-05-20T01:49:00.892Z,3.57
2023-05-20T01:51:27.842Z,3.97
2023-05-20T01:53:54.182Z,4.00
2023-05-20T01:56:22.071Z,3.97
2023-05-20T01:58:49.146Z,3.83
2023-05-20T02:01:15.566Z,3.90
2023-05-20T02:03:41.878Z,4.10
2023-05-20T02:06:08.253Z,3.73
2023-05-20T02:08:34.559Z,3.63
2023-05-20T02:11:01.081Z,3.73
2023-05-20T02:13:27.480Z,3.63
2023-05-20T02:16:06.054Z,3.57
2023-05-20T02:18:32.692Z,3.73
2023-05-20T02:21:02.617Z,4.17
2023-05-20T02:23:28.962Z,3.90
2023-05-20T02:25:55.459Z,4.10
2023-05-20T02:28:21.774Z,3.90
2023-05-20T02:30:48.081Z,4.10
2023-05-20T02:33:14.545Z,3.70
2023-05-20T02:35:40.866Z,4.07
2023-05-20T02:38:07.171Z,4.57
2023-05-20T02:40:33.524Z,4.47
2023-05-20T02:43:00.166Z,4.10
2023-05-20T02:45:26.594Z,3.90
2023-05-20T02:47:52.984Z,4.30
2023-05-20T02:50:19.307Z,3.90
2023-05-20T02:52:46.205Z,4.43
2023-05-20T02:55:12.730Z,4.23
2023-05-20T02:57:39.411Z,3.77
2023-05-20T03:00:07.175Z,4.37
2023-05-20T03:02:33.981Z,3.80
2023-05-20T03:05:00.298Z,4.30
2023-05-20T03:07:26.580Z,4.57
2023-05-20T03:09:53.744Z,4.03
2023-05-20T03:12:20.183Z,4.30
2023-05-20T03:15:00.611Z,4.47
2023-05-20T03:17:26.957Z,4.67
2023-05-20T03:19:53.270Z,4.97
2023-05-20T03:22:19.587Z,4.30
2023-05-20T03:24:46.479Z,4.70
2023-05-20T03:27:12.777Z,4.23
2023-05-20T03:29:39.161Z,4.20
2023-05-20T03:32:05.600Z,4.60
2023-05-20T03:34:31.893Z,5.00
2023-05-20T03:37:00.120Z,5.33
2023-05-20T03:39:26.455Z,4.20
2023-05-20T03:41:52.734Z,3.90
2023-05-20T03:44:19.756Z,4.40
2023-05-20T03:46:46.130Z,5.33
2023-05-20T03:49:12.437Z,4.60
2023-05-20T03:51:38.704Z,4.80
2023-05-20T03:54:05.100Z,4.87
2023-05-20T03:56:31.445Z,4.23
2023-05-20T03:58:58.279Z,5.03
2023-05-20T04:01:25.891Z,5.03
2023-05-20T04:03:52.249Z,4.87
2023-05-20T04:06:18.576Z,5.20
2023-05-20T04:08:44.855Z,4.60
2023-05-20T04:11:11.143Z,5.20
2023-05-20T04:13:37.475Z,4.67
2023-05-20T04:16:05.376Z,4.10
2023-05-20T04:18:31.979Z,4.53
2023-05-20T04:21:00.551Z,4.77
2023-05-20T04:23:26.884Z,4.70
2023-05-20T04:25:53.174Z,5.43
2023-05-20T04:28:19.522Z,5.00
2023-05-20T04:30:45.801Z,4.63
2023-05-20T04:33:12.090Z,4.63
2023-05-20T04:35:41.546Z,4.27
2023-05-20T04:38:08.601Z,5.23
2023-05-20T04:40:34.928Z,4.50
2023-05-20T04:43:01.282Z,4.53
2023-05-20T04:45:27.684Z,5.03
2023-05-20T04:47:54.003Z,4.40
2023-05-20T04:50:21.236Z,5.30
2023-05-20T04:52:47.600Z,5.30
2023-05-20T04:55:14.011Z,5.13
2023-05-20T04:57:42.013Z,4.60
2023-05-20T05:00:09.613Z,5.00
2023-05-20T05:02:36.019Z,4.73
2023-05-20T05:05:02.512Z,5.47
2023-05-20T05:07:28.944Z,5.20
2023-05-20T05:09:55.320Z,5.20
2023-05-20T05:12:21.615Z,4.90
2023-05-20T05:14:47.985Z,5.53
2023-05-20T05:17:14.276Z,5.30
2023-05-20T05:19:40.621Z,5.23
2023-05-20T05:22:06.939Z,4.97
2023-05-20T05:24:33.255Z,5.03
2023-05-20T05:27:00.405Z,4.97
2023-05-20T05:29:26.747Z,5.53
2023-05-20T05:31:53.047Z,5.30
2023-05-20T05:34:19.345Z,5.30
2023-05-20T05:36:45.664Z,5.53
2023-05-20T05:39:11.926Z,5.13
2023-05-20T05:41:38.273Z,5.50
2023-05-20T05:44:04.774Z,5.37
2023-05-20T05:46:31.497Z,5.67
2023-05-20T05:48:58.965Z,5.53
2023-05-20T05:51:27.948Z,5.47
2023-05-20T05:53:54.217Z,6.03
2023-05-20T05:56:21.791Z,5.33
2023-05-20T05:58:48.367Z,5.23
2023-05-20T06:01:14.749Z,6.07
2023-05-20T06:03:41.216Z,5.90
2023-05-20T06:06:07.584Z,6.03
2023-05-20T06:08:33.902Z,5.77
2023-05-20T06:11:00.283Z,5.43
2023-05-20T06:13:26.543Z,5.77
2023-05-20T06:15:53.645Z,5.80
2023-05-20T06:18:20.002Z,5.93
2023-05-20T06:20:46.293Z,5.90
2023-05-20T06:23:12.673Z,5.50
2023-05-20T06:25:38.948Z,6.00
2023-05-20T06:28:05.325Z,6.23
2023-05-20T06:30:31.658Z,5.43
2023-05-20T06:32:57.961Z,5.97
2023-05-20T06:35:24.268Z,6.33
2023-05-20T06:37:50.621Z,5.90
2023-05-20T06:40:17.012Z,6.20
2023-05-20T06:42:44.188Z,5.70
2023-05-20T06:45:10.859Z,6.27
2023-05-20T06:47:37.818Z,5.57
2023-05-20T06:50:04.399Z,6.23
2023-05-20T06:52:30.668Z,6.30
2023-05-20T06:54:56.956Z,6.30
2023-05-20T06:57:23.214Z,5.93
2023-05-20T06:59:49.548Z,6.33
2023-05-20T07:02:15.929Z,5.97
2023-05-20T07:04:42.295Z,6.20
2023-05-20T07:07:08.609Z,6.20
2023-05-20T07:09:35.812Z,5.30
2023-05-20T07:12:02.149Z,5.67
2023-05-20T07:14:28.481Z,5.70
2023-05-20T07:16:54.905Z,5.60
2023-05-20T07:19:21.255Z,5.77
2023-05-20T07:21:49.673Z,6.30
2023-05-20T07:24:18.995Z,6.13
2023-05-20T07:26:45.837Z,5.97
2023-05-20T07:29:12.242Z,6.17
2023-05-20T07:31:38.652Z,6.30
2023-05-20T07:34:05.088Z,6.10
2023-05-20T07:36:31.487Z,5.83
2023-05-20T07:39:03.633Z,6.00
2023-05-20T07:41:30.733Z,6.10
2023-05-20T07:43:57.075Z,5.73
2023-05-20T07:46:23.493Z,6.40
2023-05-20T07:48:49.835Z,5.77
2023-05-20T07:51:16.177Z,5.47
2023-05-20T07:53:42.468Z,5.53
2023-05-20T07:56:08.937Z,5.73
2023-05-20T07:58:35.734Z,6.07
2023-05-20T08:01:02.109Z,5.40
2023-05-20T08:03:28.487Z,5.70
2023-05-20T08:05:54.912Z,5.57
2023-05-20T08:08:21.462Z,5.13
2023-05-20T08:10:47.749Z,5.53
2023-05-20T08:13:14.067Z,5.50
2023-05-20T08:15:41.043Z,4.87
2023-05-20T08:18:07.457Z,5.40
2023-05-20T08:20:33.794Z,5.30
2023-05-20T08:23:00.103Z,5.30
2023-05-20T08:25:26.370Z,5.47
2023-05-20T08:27:52.675Z,5.03
2023-05-20T08:30:18.983Z,5.43
2023-05-20T08:32:45.390Z,5.20
2023-05-20T08:35:11.718Z,5.27
2023-05-20T08:37:38.017Z,4.73
2023-05-20T08:40:05.335Z,5.03
2023-05-20T08:42:31.918Z,4.87
2023-05-20T08:44:58.927Z,5.00
2023-05-20T08:47:26.309Z,5.47
2023-05-20T08:49:52.642Z,4.83
2023-05-20T08:52:21.216Z,5.20
2023-05-20T08:54:48.304Z,4.93
2023-05-20T08:57:14.680Z,5.30
2023-05-20T08:59:42.212Z,4.73
2023-05-20T09:02:09.104Z,5.33
2023-05-20T09:04:35.494Z,5.67
2023-05-20T09:07:01.792Z,5.23
2023-05-20T09:09:28.077Z,5.40
2023-05-20T09:11:54.356Z,5.70
2023-05-20T09:14:20.731Z,6.23
2023-05-20T09:16:47.902Z,5.93
2023-05-20T09:19:14.270Z,5.37
2023-05-20T09:21:41.388Z,5.37
2023-05-20T09:24:07.748Z,5.73
2023-05-20T09:26:34.085Z,6.13
2023-05-20T09:29:00.709Z,5.63
2023-05-20T09:31:38.653Z,5.40
2023-05-20T09:34:05.397Z,5.77
2023-05-20T09:36:34.375Z,5.20
2023-05-20T09:39:05.116Z,6.03
2023-05-20T09:41:34.043Z,5.53
2023-05-20T09:44:00.481Z,5.43
2023-05-20T09:46:27.092Z,6.70
2023-05-20T09:48:53.454Z,6.30
2023-05-20T09:51:20.683Z,6.93
2023-05-20T09:53:47.195Z,6.20
2023-05-20T09:56:14.107Z,6.50
2023-05-20T09:58:42.106Z,7.33
2023-05-20T10:01:08.479Z,7.90
2023-05-20T10:03:36.043Z,7.93
2023-05-20T10:06:17.414Z,7.33
2023-05-20T10:09:04.174Z,8.00
2023-05-20T10:11:38.569Z,7.80
2023-05-20T10:14:15.951Z,7.67
2023-05-20T10:17:00.213Z,7.77
2023-05-20T10:19:29.114Z,8.07
2023-05-20T10:22:02.687Z,7.80
2023-05-20T10:24:29.815Z,8.30
2023-05-20T10:26:57.514Z,7.50
2023-05-20T10:29:23.826Z,8.10
2023-05-20T10:31:51.339Z,8.47
2023-05-20T10:34:18.654Z,8.03
2023-05-20T10:36:58.389Z,8.47
2023-05-20T10:39:34.137Z,8.77
2023-05-20T10:42:08.281Z,8.73
2023-05-20T10:44:44.150Z,8.67
2023-05-20T10:49:41.343Z,7.50
2023-05-20T10:52:10.151Z,8.27
2023-05-20T10:54:37.228Z,8.10
2023-05-20T10:57:08.525Z,7.67
2023-05-20T10:59:36.090Z,7.73
2023-05-20T11:02:02.994Z,7.93
2023-05-20T11:04:30.061Z,7.43
2023-05-20T11:06:57.154Z,7.63
2023-05-20T11:09:23.452Z,7.87
2023-05-20T11:11:50.628Z,7.87
2023-05-20T11:14:18.260Z,8.47
2023-05-20T11:16:45.621Z,7.97
2023-05-20T11:19:15.709Z,8.10
2023-05-20T11:21:46.150Z,8.63
2023-05-20T11:24:12.755Z,7.20
2023-05-20T11:26:39.569Z,8.20
2023-05-20T11:29:05.883Z,7.40
2023-05-20T11:31:32.319Z,8.00
2023-05-20T11:34:02.383Z,7.20
2023-05-20T11:36:28.897Z,8.23
2023-05-20T11:38:56.950Z,8.07
2023-05-20T11:41:24.268Z,7.90
2023-05-20T11:43:55.588Z,7.80
2023-05-20T11:46:22.036Z,7.77
2023-05-20T11:48:53.185Z,8.30
2023-05-20T11:51:22.508Z,8.33
2023-05-20T11:53:48.818Z,8.10
2023-05-20T11:56:15.133Z,7.60
2023-05-20T11:58:43.561Z,7.63
2023-05-20T12:01:21.568Z,8.47
2023-05-20T12:03:49.103Z,7.90
2023-05-20T12:06:16.934Z,7.47
2023-05-20T12:08:43.303Z,8.03
2023-05-20T12:11:09.656Z,8.17
2023-05-20T12:13:36.010Z,7.97
2023-05-20T12:16:02.364Z,7.67
2023-05-20T12:18:28.865Z,8.20
2023-05-20T12:20:55.201Z,8.33
2023-05-20T12:23:21.723Z,7.40
2023-05-20T12:25:49.913Z,8.10
2023-05-20T12:28:17.628Z,7.87
2023-05-20T12:30:43.940Z,7.10
2023-05-20T12:33:10.264Z,7.83
2023-05-20T12:35:37.978Z,7.70
2023-05-20T12:38:05.018Z,8.17
2023-05-20T12:40:31.333Z,7.73
2023-05-20T12:42:58.167Z,8.10
2023-05-20T12:45:24.579Z,7.80
2023-05-20T12:47:51.373Z,8.23
2023-05-20T12:50:17.772Z,8.43
2023-05-20T12:52:44.219Z,7.87
2023-05-20T12:55:13.799Z,7.97
2023-05-20T12:57:40.944Z,7.53
2023-05-20T13:00:10.656Z,7.87
2023-05-20T13:02:39.753Z,8.10
2023-05-20T13:05:06.597Z,8.03
2023-05-20T13:07:33.167Z,8.13
2023-05-20T13:09:59.776Z,8.47
2023-05-20T13:12:26.219Z,8.20
2023-05-20T13:14:52.601Z,8.23
2023-05-20T13:17:18.941Z,8.87
2023-05-20T13:19:47.949Z,8.10
2023-05-20T13:22:14.255Z,8.60
2023-05-20T13:24:40.713Z,8.23
2023-05-20T13:27:07.048Z,8.20
2023-05-20T13:29:34.184Z,8.00
2023-05-20T13:32:02.094Z,7.70
2023-05-20T13:34:28.777Z,7.63
2023-05-20T13:36:55.251Z,7.60
2023-05-20T13:39:21.602Z,7.73
2023-05-20T13:41:47.947Z,7.80
2023-05-20T13:44:14.444Z,8.50
2023-05-20T13:46:40.897Z,7.40
2023-05-20T13:49:07.289Z,7.40
2023-05-20T13:51:33.779Z,7.23
2023-05-20T13:54:00.132Z,6.77
2023-05-20T13:56:26.804Z,6.80
2023-05-20T13:58:53.125Z,7.33
2023-05-20T14:01:19.455Z,7.50
2023-05-20T14:03:45.884Z,7.93
2023-05-20T14:06:12.387Z,7.33
2023-05-20T14:08:38.710Z,7.57
2023-05-20T14:11:04.996Z,7.47
2023-05-20T14:13:31.303Z,6.73
2023-05-20T14:15:57.783Z,7.37
2023-05-20T14:18:24.116Z,7.20
2023-05-20T14:20:50.415Z,7.37
2023-05-20T14:23:16.856Z,7.30
2023-05-20T14:25:43.184Z,7.40
2023-05-20T14:28:09.544Z,7.73
2023-05-20T14:30:36.230Z,7.50
2023-05-20T14:33:02.892Z,7.10
2023-05-20T14:35:29.189Z,7.00
2023-05-20T14:37:55.558Z,7.20
2023-05-20T14:40:21.954Z,6.87
2023-05-20T14:42:48.241Z,7.67
2023-05-20T14:45:14.592Z,6.60
2023-05-20T14:47:41.011Z,6.77
2023-05-20T14:50:07.659Z,7.50
2023-05-20T14:52:34.054Z,7.07
2023-05-20T14:55:00.338Z,6.50
2023-05-20T14:57:26.770Z,6.23
2023-05-20T14:59:53.200Z,6.63
2023-05-20T15:02:19.834Z,6.20
2023-05-20T15:04:47.787Z,6.63
2023-05-20T15:07:14.626Z,6.57
2023-05-20T15:09:41.181Z,6.67
2023-05-20T15:12:07.545Z,6.20
2023-05-20T15:14:33.881Z,6.40
2023-05-20T15:17:00.352Z,6.47
2023-05-20T15:19:26.822Z,6.37
2023-05-20T15:21:53.242Z,6.20
2023-05-20T15:24:19.523Z,7.10
2023-05-20T15:26:45.852Z,6.57
2023-05-20T15:29:12.194Z,6.13
2023-05-20T15:31:38.454Z,6.27
2023-05-20T15:34:04.784Z,5.77
2023-05-20T15:36:31.660Z,6.20
2023-05-20T15:38:58.010Z,6.27
2023-05-20T15:41:24.425Z,5.97
2023-05-20T15:43:51.160Z,5.90
2023-05-20T15:46:17.922Z,6.00
2023-05-20T15:48:44.255Z,6.43
2023-05-20T15:51:10.783Z,5.73
2023-05-20T15:53:38.706Z,5.60
2023-05-20T15:56:07.149Z,6.00
2023-05-20T15:58:33.445Z,5.93
2023-05-20T16:00:59.898Z,5.90
2023-05-20T16:03:26.632Z,5.90
2023-05-20T16:05:52.973Z,5.77
2023-05-20T16:08:20.790Z,6.70
2023-05-20T16:10:47.121Z,6.00
2023-05-20T16:13:13.513Z,6.27
2023-05-20T16:15:39.942Z,5.90
2023-05-20T16:18:06.317Z,5.57
2023-05-20T16:20:32.726Z,5.97
2023-05-20T16:22:59.274Z,6.50
2023-05-20T16:25:26.549Z,5.80
2023-05-20T16:27:52.836Z,5.70
2023-05-20T16:30:19.144Z,5.80
2023-05-20T16:32:45.538Z,6.00
2023-05-20T16:35:12.375Z,6.00
2023-05-20T16:37:39.478Z,5.57
2023-05-20T16:40:07.313Z,5.37
2023-05-20T16:42:33.828Z,5.47
2023-05-20T16:45:00.227Z,5.53
2023-05-20T16:47:26.629Z,6.00
2023-05-20T16:49:52.929Z,5.50
2023-05-20T16:52:19.260Z,5.93
2023-05-20T16:54:45.886Z,6.30
2023-05-20T16:57:14.082Z,6.23
2023-05-20T16:59:40.685Z,5.93
2023-05-20T17:02:06.972Z,6.43
2023-05-20T17:04:33.331Z,5.80
2023-05-20T17:07:01.645Z,5.90
2023-05-20T17:09:28.786Z,5.50
2023-05-20T17:11:55.821Z,6.03
2023-05-20T17:14:22.099Z,6.13
2023-05-20T17:16:48.482Z,6.20
2023-05-20T17:19:15.089Z,5.80
2023-05-20T17:21:41.714Z,5.97
2023-05-20T17:24:08.028Z,5.40
2023-05-20T17:26:34.354Z,6.83
2023-05-20T17:29:00.737Z,6.43
2023-05-20T17:31:27.097Z,6.30
2023-05-20T17:33:53.453Z,6.23
2023-05-20T17:36:23.145Z,6.33
2023-05-20T17:38:52.203Z,6.40
2023-05-20T17:41:18.619Z,6.00
2023-05-20T17:43:45.495Z,5.90
2023-05-20T17:46:12.296Z,6.23
2023-05-20T17:48:40.600Z,6.33
2023-05-20T17:51:06.878Z,6.17
2023-05-20T17:53:33.170Z,6.57
2023-05-20T17:55:59.483Z,6.03
2023-05-20T17:58:26.723Z,6.23
2023-05-20T18:00:53.672Z,6.80
2023-05-20T18:03:20.199Z,6.10
2023-05-20T18:05:47.585Z,5.73
2023-05-20T18:08:13.997Z,6.40
2023-05-20T18:10:40.646Z,5.60
2023-05-20T18:13:06.961Z,6.00
2023-05-20T18:15:33.307Z,5.73
2023-05-20T18:17:59.706Z,6.33
2023-05-20T18:20:26.224Z,6.10
2023-05-20T18:22:58.178Z,6.30
2023-05-20T18:25:25.197Z,5.80
2023-05-20T18:27:52.258Z,5.87
2023-05-20T18:30:18.788Z,6.30
2023-05-20T18:32:45.147Z,5.93
2023-05-20T18:35:11.728Z,6.07
2023-05-20T18:37:38.013Z,6.07
2023-05-20T18:40:06.455Z,5.90
2023-05-20T18:42:32.794Z,6.17
2023-05-20T18:44:59.156Z,6.63
2023-05-20T18:47:25.555Z,6.40
2023-05-20T18:49:51.985Z,6.23
2023-05-20T18:52:18.377Z,6.13
2023-05-20T18:54:44.701Z,6.43
2023-05-20T18:57:11.131Z,6.57
2023-05-20T18:59:37.489Z,6.53
2023-05-20T19:02:03.792Z,5.97
2023-05-20T19:04:30.265Z,6.23
2023-05-20T19:06:58.336Z,6.13
2023-05-20T19:09:24.673Z,6.50
2023-05-20T19:11:55.910Z,6.67
2023-05-20T19:14:22.356Z,5.97
2023-05-20T19:16:48.737Z,6.50
2023-05-20T19:19:15.108Z,6.90
2023-05-20T19:21:43.529Z,6.43
2023-05-20T19:24:10.233Z,6.30
2023-05-20T19:26:36.650Z,5.80
2023-05-20T19:29:02.971Z,6.33
2023-05-20T19:31:29.407Z,5.90
2023-05-20T19:33:55.784Z,6.37
2023-05-20T19:36:22.061Z,6.47
2023-05-20T19:38:48.483Z,6.50
2023-05-20T19:41:14.860Z,6.03
2023-05-20T19:43:41.219Z,6.20
2023-05-20T19:46:07.722Z,6.10
2023-05-20T19:48:34.145Z,6.17
2023-05-20T19:51:00.629Z,6.80
2023-05-20T19:53:26.908Z,6.40
2023-05-20T19:55:53.538Z,6.23
2023-05-20T19:58:19.905Z,6.20
2023-05-20T20:00:46.689Z,7.00
2023-05-20T20:03:13.691Z,6.60
2023-05-20T20:05:40.050Z,6.40
2023-05-20T20:08:06.449Z,6.20
2023-05-20T20:10:34.367Z,6.53
2023-05-20T20:13:00.642Z,7.03
2023-05-20T20:15:27.179Z,6.50
2023-05-20T20:17:53.558Z,6.73
2023-05-20T20:20:19.903Z,6.93
2023-05-20T20:22:46.453Z,6.90
2023-05-20T20:25:15.994Z,7.00
2023-05-20T20:27:43.991Z,7.17
2023-05-20T20:30:13.729Z,6.40
2023-05-20T20:32:40.553Z,7.10
2023-05-20T20:35:07.973Z,7.03
2023-05-20T20:37:35.416Z,7.13
2023-05-20T20:40:12.037Z,6.93
2023-05-20T20:42:41.949Z,7.27
2023-05-20T20:45:08.714Z,6.67
2023-05-20T20:47:35.039Z,7.13
2023-05-20T20:50:03.519Z,6.93
2023-05-20T20:52:29.800Z,6.87
2023-05-20T20:54:57.098Z,7.07
2023-05-20T20:57:23.927Z,7.50
2023-05-20T20:59:51.279Z,7.40
2023-05-20T21:02:18.915Z,7.47
2023-05-20T21:04:45.191Z,7.70
2023-05-20T21:07:12.026Z,7.53
2023-05-20T21:09:38.337Z,7.63
2023-05-20T21:12:06.592Z,7.40
2023-05-20T21:14:33.165Z,7.57
2023-05-20T21:16:59.757Z,8.10
2023-05-20T21:19:26.620Z,8.30
2023-05-20T21:21:53.084Z,8.40
2023-05-20T21:24:19.833Z,8.00
2023-05-20T21:26:46.330Z,8.00
2023-05-20T21:29:13.379Z,7.80
2023-05-20T21:31:39.675Z,8.37
2023-05-20T21:34:05.974Z,8.13
2023-05-20T21:36:32.406Z,8.20
2023-05-20T21:38:58.729Z,8.43
2023-05-20T21:41:25.048Z,8.40
2023-05-20T21:43:51.503Z,8.67
2023-05-20T21:46:17.830Z,8.93
2023-05-20T21:48:44.150Z,8.23
2023-05-20T21:51:10.722Z,8.40
2023-05-20T21:53:36.992Z,8.53
2023-05-20T21:56:03.509Z,9.17
2023-05-20T21:58:29.823Z,9.27
2023-05-20T22:00:56.154Z,9.37
2023-05-20T22:03:22.635Z,8.67
2023-05-20T22:05:49.652Z,8.90
2023-05-20T22:08:16.970Z,9.63
2023-05-20T22:10:43.868Z,9.47
2023-05-20T22:13:13.658Z,9.77
2023-05-20T22:15:39.989Z,10.33
2023-05-20T22:18:07.823Z,10.57
2023-05-20T22:20:34.352Z,10.63
2023-05-20T22:23:01.007Z,10.37
2023-05-20T22:25:28.188Z,10.27
2023-05-20T22:27:54.565Z,10.70
2023-05-20T22:30:20.908Z,10.97
2023-05-20T22:32:47.301Z,10.97
2023-05-20T22:35:14.030Z,10.83
2023-05-20T22:37:40.305Z,11.10
2023-05-20T22:40:07.247Z,11.50
2023-05-20T22:42:33.500Z,12.23
2023-05-20T22:44:59.804Z,11.23
2023-05-20T22:47:26.357Z,11.57
2023-05-20T22:49:52.657Z,12.27
2023-05-20T22:52:18.964Z,11.70
2023-05-20T22:54:45.401Z,11.83
2023-05-20T22:57:12.154Z,12.40
2023-05-20T22:59:38.975Z,11.97
2023-05-20T23:02:06.213Z,12.77
2023-05-20T23:04:32.694Z,12.17
2023-05-20T23:06:59.518Z,12.40
2023-05-20T23:09:26.094Z,12.60
2023-05-20T23:11:52.432Z,12.60
2023-05-20T23:14:19.960Z,12.10
2023-05-20T23:16:46.457Z,12.63
2023-05-20T23:19:12.842Z,12.70
2023-05-20T23:21:39.914Z,12.70
2023-05-20T23:24:06.462Z,12.77
2023-05-20T23:26:34.477Z,13.10
2023-05-20T23:29:04.927Z,13.73
2023-05-20T23:31:32.798Z,12.97
2023-05-20T23:33:59.281Z,13.63
2023-05-20T23:36:35.850Z,13.00
2023-05-20T23:39:02.459Z,14.53
2023-05-20T23:41:28.817Z,12.70
2023-05-20T23:43:55.111Z,13.70
2023-05-20T23:46:21.496Z,14.20
2023-05-20T23:48:48.356Z,12.50
2023-05-20T23:51:14.694Z,13.77
2023-05-20T23:53:42.490Z,14.17
2023-05-20T23:56:09.233Z,14.63
2023-05-20T23:58:35.693Z,14.30
